Benvolgut visitant, si us plau, ingressa Recuperar contrasenya
AVAMET paisatges
Union Alcoyana

Coix centre

Dades diàries. Acumulats / Últims 30 dies disponibles

Data Temperatura (°C) Humitat rel. (%) Pressió rel. (hPa) Vent (km/h) Precipitació
Mínima Mitjana Màxima Amplitud
tèrmica
Mínima Mitjana Màxima Mínima Mitjana Màxima Predom. Mitjana Ràfega
màxima
Total
(mm)
Índex-n
Mínima Mitjana Màxima Mínima Mitjana Màxima n
0 a 1
P0 max
mm 5'
Dades mensuals acumulades fins l'últim dia disponible
05/2022 12,6 14,9 19,1 20,5 17,2 26,3 31,5 18,9 17 51 75 1.009 1.019 1.024   4,6 33,8 42,7
Dades anuals acumulades fins l'últim dia disponible
2022 2,2 10,5 19,1 14,8 11,1 19,7 31,5 29,3 0 53 89 999 1.020 1.035   5,5 57,9 259,8
Últims 30 dies disponibles
20-05-2022 19,1     25,5     31,5 12,4 27 42 58 1.021 1.022 1.023 SE 7,2 33,8 0,0
19-05-2022 16,8     23,8     29,7 12,9 25 45 63 1.018 1.020 1.022 E 6,0 29,0 0,0
18-05-2022 18,3     23,8     28,9 10,6 33 51 66 1.017 1.018 1.019 E 4,7 25,7 0,0
17-05-2022 17,7     23,6     29,8 12,1 32 52 68 1.017 1.019 1.020 E 4,7 22,5 0,0
16-05-2022 16,5     23,1     29,5 13,0 33 55 70 1.017 1.018 1.020 S 4,1 22,5 0,0
15-05-2022 14,9     21,7     28,3 13,4 28 47 66 1.015 1.017 1.018 NNE 4,5 22,5 0,0
14-05-2022 15,3     21,7     27,9 12,6 17 47 70 1.016 1.019 1.021 W 4,2 25,7 0,0
13-05-2022 15,7     21,0     26,6 10,9 34 56 70 1.020 1.021 1.022 NE 3,7 25,7 0,0
12-05-2022 13,1     19,8     25,4 12,3 34 51 66 1.019 1.020 1.021 SW 5,4 25,7 0,0
11-05-2022 13,1     19,8     26,1 13,0 27 49 65 1.020 1.021 1.023 E 3,9 25,7 0,0
10-05-2022 13,0     19,8     26,0 13,0 28 47 65 1.022 1.023 1.024 NE 3,7 22,5 16,3
09-05-2022 13,2     20,0     25,5 12,3 23 44 65 1.021 1.022 1.024 ESE 4,1 27,4 0,0
08-05-2022 12,6     19,6     26,8 14,2 24 48 66 1.017 1.019 1.021 E 3,9 32,2 0,0
07-05-2022 12,7     19,1     25,7 13,0 26 49 67 1.019 1.020 1.021 WSW 4,7 29,0 0,0
06-05-2022 12,6     18,2     24,6 12,0 38 54 69 1.019 1.020 1.022 N 4,3 25,7 0,0
05-05-2022 15,1     18,5     23,0 7,9 37 48 62 1.017 1.019 1.023 W 5,8 24,1 0,3
04-05-2022 14,1     15,3     17,2 3,1 61 69 75 1.013 1.015 1.017 WSW 2,6 32,2 24,1 0,51 2,80
03-05-2022 13,4     17,5     23,3 9,9 36 58 72 1.009 1.011 1.013 SW 4,4 32,2 0,0
02-05-2022 16,6     18,5     22,7 6,1 38 58 70 1.010 1.012 1.015 SSE 5,2 29,0 1,5
01-05-2022 14,3     19,9     26,6 12,3 36 50 63 1.015 1.017 1.020 NW 4,3 29,0 0,5
30-04-2022 11,9     19,7     26,4 14,5 22 44 65 1.018 1.021 1.024 W 5,7 32,2 0,0
29-04-2022 11,2     17,6     23,0 11,8 34 51 72 1.020 1.022 1.024 W 5,4 27,4 0,0
28-04-2022 12,6     14,7     16,2 3,6 51 68 77 1.017 1.019 1.022 ENE 1,7 16,1 3,3 0,26 0,50
27-04-2022 13,6     15,8     18,7 5,1 36 56 73 1.014 1.017 1.019 WNW 3,6 32,2 1,8
26-04-2022 10,9     16,4     21,7 10,8 29 50 67 1.013 1.014 1.015 NNW 3,9 24,1 0,0
25-04-2022 11,1     17,1     22,8 11,7 30 52 69 1.011 1.013 1.014 ESE 4,0 24,1 0,0
24-04-2022 10,6     17,3     24,0 13,4 18 40 58 1.010 1.012 1.013 WSW 6,6 37,0 0,0
23-04-2022 12,8     17,2     21,8 9,0 17 38 63 999 1.004 1.010 W 14,2 56,3 0,5
22-04-2022 12,1     16,4     19,6 7,5 36 47 60 1.000 1.003 1.006 W 5,4 30,6 0,0
21-04-2022 12,5     17,0     22,3 9,8 25 36 48 1.004 1.005 1.007 WNW 15,3 38,6 0,0
Últims 13 mesos disponibles
04/2022 5,9 12,2 17,4 16,5 11,1 21,0 28,2 22,3 24 48 68 1.003 1.014 1.022 W 7,6 56,3 58,3
03/2022 6,7 11,3 18,8 14,3 13,6 18,0 22,3 15,6 38 60 76 1.003 1.017 1.026 E 6,0 51,5 141,4
02/2022 5,4 8,8 13,1 13,6 15,6 19,1 25,2 19,8 27 52 71 1.018 1.024 1.031 W 4,4 40,2 3,6
01/2022 2,2 6,6 15,4 11,1 11,8 16,6 24,6 22,4 21 54 76 1.014 1.026 1.033 WNW 4,5 57,9 13,8
12/2021 6,1 11,1 16,9 14,8 14,1 18,9 25,2 19,1 32 51 71 1.009 1.020 1.028 W 7,3 61,2 0,8
11/2021 8,3 11,5 19,3 15,2 13,9 19,5 27,5 19,2 29 48 69 1.006 1.015 1.026 W 7,8 77,2 44,5
10/2021 12,7 16,5 20,6 20,5 21,4 25,4 30,7 18,0 34 59 74 1.011 1.019 1.026 W 3,9 54,7 38,6
09/2021 17,7 21,2 24,4 25,7 26,8 30,8 35,4 17,7 39 55 65 1.012 1.017 1.024 W 5,2 45,1 7,7
08/2021 20,8 23,6 25,8 27,9 29,9 33,3 42,4 21,6 43 55 62 1.007 1.015 1.020 ESE 6,0 41,8 0,0
07/2021 20,2 22,1 24,3 27,3 29,2 33,0 43,5 23,3 36 54 65 1.008 1.015 1.021 ESE 6,1 46,7 16,5
06/2021 15,3 19,4 22,8 24,4 25,4 29,2 33,2 17,9 33 54 70 1.010 1.016 1.021 ESE 6,2 53,1 23,9
05/2021 12,7 16,1 19,3 21,0 20,3 26,1 36,0 23,3 30 52 72 1.008 1.017 1.024 ESE 6,8 53,1 78,6
04/2021 8,1 12,8 15,3 16,4 14,8 20,9 28,9 20,8 45 61 76 1.006 1.015 1.024 E 5,4 48,3 50,4
Tots els anys disponibles
2021 2,2 15,3 25,8 19,6 8,7 24,4 43,5 41,3 29 55 82 1.003 1.017 1.034 W 6,3 77,2 287,9
Temperatura (°C)
Velocitat del vent i ràfega màxima (km/h)
Direcció del vent (°)
Pressió (hPa)
Precipitació (mm)
Nota sobre les dades: s'avisa a l'usuari de la provisionalitat i no oficialitat d'aquestes dades
Logo AVAMET blanc
Web allotjada a Sollutia
Llicència de Creative CommonsLa web d'AVAMET i els seus continguts estan subjectes a una llicència de
Reconeixement - No Comercial - Compartir igual
Avís legal - Política de privacitat - Política de cookies
NOVES ESTACIONS:  Vila-real - les Solaes (Soci), Calles - Parque de Emergencias (Soci), Bocairent - els Corrals (Soci), Sella - el Xarquer, Xàbia - Far del Cap de la Nau (Soci), Benicàssim - Quadre de Santiago (Soci), Sant Mateu - IES Maestrat (Soci)  / el Palomar (Ajuntament/Soci) / Atzeneta del Maestrat - Pla de Meanes (Ajuntament/Soci) / Onda - Sant Gil (Soci) / Onda - Ràtils CR Cota 220 (Soci) / la Vila Joiosa (Ajuntament/Soci) / Miramar - Platja (Ajuntament/Soci) / Massanassa - IES Massanassa (Soci) / Culla - Pla de les Vinyes (Ajuntament/Soci) - - -